TRA147 ELLX-EGLL
Flight info
| Callsign | TRA147 |
|---|---|
| Flight time | N/A |
| Altitude | 38000 |
| Route | LNO N852 TERLA L608 LOGAN |
| Aircraft | B738/M-SDE2E3FGHIRWXY/LB1 |
Departure
| Time | 2026-05-01 15:14 |
|---|---|
| Airport | Luxembourg-Findel International Airport (ELLX) |
Arrival
| Time | N/A |
|---|---|
| Airport | London Heathrow Airport (EGLL) |
| Time | Latitude | Longitude | Altitude | Speed | Heading |
|---|---|---|---|---|---|
| 2026-05-01 14:45 | 49.63154 | 6.21385 | 1232 ft | 0 kts | 60° |
| 2026-05-01 15:05 | 49.63154 | 6.21384 | 1232 ft | 0 kts | 60° |
| 2026-05-01 15:06 | 49.63150 | 6.21374 | 1232 ft | 2 kts | 54° |
| 2026-05-01 15:06 | 49.63141 | 6.21355 | 1232 ft | 2 kts | 57° |
| 2026-05-01 15:06 | 49.63133 | 6.21337 | 1232 ft | 1 kts | 56° |
| 2026-05-01 15:06 | 49.63131 | 6.21324 | 1232 ft | 1 kts | 110° |
| 2026-05-01 15:07 | 49.63134 | 6.21316 | 1233 ft | 0 kts | 147° |
| 2026-05-01 15:07 | 49.63141 | 6.21311 | 1233 ft | 0 kts | 150° |
| 2026-05-01 15:09 | 49.63136 | 6.21315 | 1233 ft | 3 kts | 150° |
| 2026-05-01 15:09 | 49.63069 | 6.21375 | 1228 ft | 18 kts | 156° |
| 2026-05-01 15:09 | 49.62966 | 6.21286 | 1227 ft | 22 kts | 241° |
| 2026-05-01 15:10 | 49.62884 | 6.21025 | 1232 ft | 32 kts | 244° |
| 2026-05-01 15:10 | 49.62622 | 6.20510 | 1223 ft | 36 kts | 227° |
| 2026-05-01 15:10 | 49.62477 | 6.20229 | 1215 ft | 37 kts | 239° |
| 2026-05-01 15:11 | 49.62342 | 6.19864 | 1199 ft | 31 kts | 240° |
| 2026-05-01 15:11 | 49.62089 | 6.19185 | 1166 ft | 39 kts | 240° |
| 2026-05-01 15:11 | 49.61961 | 6.18846 | 1153 ft | 24 kts | 232° |
| 2026-05-01 15:12 | 49.61867 | 6.18720 | 1147 ft | 0 kts | 205° |
| 2026-05-01 15:12 | 49.61861 | 6.18717 | 1146 ft | 5 kts | 198° |
| 2026-05-01 15:13 | 49.61829 | 6.18959 | 1155 ft | 35 kts | 60° |
| 2026-05-01 15:14 | 49.62652 | 6.21165 | 1382 ft | 181 kts | 63° |
| 2026-05-01 15:14 | 49.63312 | 6.22957 | 2088 ft | 202 kts | 63° |
| 2026-05-01 15:14 | 49.64716 | 6.26753 | 3769 ft | 220 kts | 62° |
| 2026-05-01 15:15 | 49.66411 | 6.31306 | 3983 ft | 260 kts | 62° |
| 2026-05-01 15:15 | 49.68206 | 6.36134 | 3977 ft | 262 kts | 62° |
| 2026-05-01 15:16 | 49.71106 | 6.39603 | 5286 ft | 279 kts | 16° |
| 2026-05-01 15:16 | 49.74927 | 6.39641 | 7218 ft | 288 kts | 338° |
| 2026-05-01 15:17 | 49.77779 | 6.35419 | 9077 ft | 294 kts | 300° |
| 2026-05-01 15:18 | 49.80947 | 6.26932 | 11287 ft | 323 kts | 298° |
| 2026-05-01 15:18 | 49.82099 | 6.23839 | 11867 ft | 339 kts | 299° |
| 2026-05-01 15:19 | 49.85996 | 6.14173 | 14020 ft | 365 kts | 312° |
| 2026-05-01 15:19 | 49.90350 | 6.10236 | 15666 ft | 371 kts | 340° |
| 2026-05-01 15:19 | 49.92772 | 6.08917 | 16449 ft | 375 kts | 342° |
| 2026-05-01 15:20 | 49.97744 | 6.06259 | 17967 ft | 383 kts | 341° |
| 2026-05-01 15:20 | 50.00264 | 6.04871 | 18752 ft | 385 kts | 341° |
| 2026-05-01 15:20 | 50.02768 | 6.03465 | 19485 ft | 388 kts | 340° |
| 2026-05-01 15:21 | 50.05323 | 6.02011 | 20239 ft | 390 kts | 340° |
| 2026-05-01 15:21 | 50.07871 | 6.00551 | 20953 ft | 392 kts | 340° |
| 2026-05-01 15:21 | 50.10408 | 5.99092 | 21642 ft | 395 kts | 340° |
| 2026-05-01 15:21 | 50.13005 | 5.97596 | 22277 ft | 398 kts | 340° |
| 2026-05-01 15:22 | 50.18206 | 5.94595 | 23538 ft | 404 kts | 340° |
| 2026-05-01 15:22 | 50.20854 | 5.93065 | 24110 ft | 408 kts | 340° |
| 2026-05-01 15:22 | 50.23545 | 5.91507 | 24666 ft | 412 kts | 340° |
| 2026-05-01 15:23 | 50.26215 | 5.89960 | 25226 ft | 415 kts | 340° |
| 2026-05-01 15:23 | 50.28953 | 5.88371 | 25750 ft | 419 kts | 340° |
| 2026-05-01 15:23 | 50.31685 | 5.86784 | 26277 ft | 422 kts | 340° |
| 2026-05-01 15:23 | 50.34433 | 5.85186 | 26796 ft | 425 kts | 340° |
| 2026-05-01 15:24 | 50.37207 | 5.83570 | 27303 ft | 428 kts | 340° |
| 2026-05-01 15:24 | 50.40004 | 5.81940 | 27816 ft | 431 kts | 340° |
| 2026-05-01 15:24 | 50.42793 | 5.80312 | 28315 ft | 433 kts | 340° |
| 2026-05-01 15:24 | 50.45611 | 5.78663 | 28747 ft | 437 kts | 340° |
| 2026-05-01 15:25 | 50.48481 | 5.76984 | 29196 ft | 440 kts | 340° |
| 2026-05-01 15:25 | 50.51345 | 5.75305 | 29669 ft | 442 kts | 340° |
| 2026-05-01 15:25 | 50.54254 | 5.73599 | 30079 ft | 445 kts | 340° |
| 2026-05-01 15:25 | 50.57135 | 5.71906 | 30513 ft | 448 kts | 340° |
| 2026-05-01 15:26 | 50.60061 | 5.70127 | 30971 ft | 450 kts | 338° |
| 2026-05-01 15:26 | 50.62893 | 5.68102 | 31685 ft | 445 kts | 334° |
| 2026-05-01 15:26 | 50.65564 | 5.65703 | 32229 ft | 444 kts | 327° |
| 2026-05-01 15:26 | 50.68041 | 5.62859 | 32761 ft | 442 kts | 321° |
| 2026-05-01 15:27 | 50.70338 | 5.59533 | 33257 ft | 441 kts | 314° |
| 2026-05-01 15:27 | 50.72339 | 5.55879 | 33809 ft | 439 kts | 307° |
| 2026-05-01 15:27 | 50.74049 | 5.51938 | 34270 ft | 438 kts | 301° |
| 2026-05-01 15:28 | 50.76567 | 5.43244 | 35131 ft | 435 kts | 287° |
| 2026-05-01 15:28 | 50.77327 | 5.38677 | 35523 ft | 433 kts | 281° |
| 2026-05-01 15:28 | 50.77759 | 5.33947 | 35879 ft | 432 kts | 274° |
| 2026-05-01 15:29 | 50.78158 | 5.24502 | 36576 ft | 432 kts | 274° |
| 2026-05-01 15:29 | 50.78504 | 5.19817 | 36939 ft | 433 kts | 277° |
| 2026-05-01 15:29 | 50.79697 | 5.10509 | 37755 ft | 432 kts | 283° |
| 2026-05-01 15:30 | 50.81284 | 5.01393 | 38203 ft | 436 kts | 285° |
| 2026-05-01 15:31 | 50.86439 | 4.74101 | 38200 ft | 433 kts | 286° |
| 2026-05-01 15:32 | 50.89974 | 4.55868 | 38200 ft | 435 kts | 289° |
| 2026-05-01 15:33 | 50.94125 | 4.43049 | 38198 ft | 437 kts | 301° |
| 2026-05-01 15:34 | 50.98962 | 4.30778 | 38194 ft | 436 kts | 301° |